sensor_id;sensor_type;location;lat;lon;timestamp;P1;durP1;ratioP1;P2;durP2;ratioP2
45039;SDS011;30778;53.574;7.770;2023-10-09T00:00:56;8.23;;;1.13;;
45039;SDS011;30778;53.574;7.770;2023-10-09T00:03:29;5.32;;;1.00;;
45039;SDS011;30778;53.574;7.770;2023-10-09T00:05:55;3.67;;;1.25;;
45039;SDS011;30778;53.574;7.770;2023-10-09T00:08:21;5.38;;;1.58;;
45039;SDS011;30778;53.574;7.770;2023-10-09T00:10:50;4.90;;;1.45;;
45039;SDS011;30778;53.574;7.770;2023-10-09T00:13:23;5.18;;;1.25;;
45039;SDS011;30778;53.574;7.770;2023-10-09T00:16:05;1.88;;;0.90;;
45039;SDS011;30778;53.574;7.770;2023-10-09T00:18:39;3.28;;;1.30;;
45039;SDS011;30778;53.574;7.770;2023-10-09T00:21:05;5.20;;;1.20;;
45039;SDS011;30778;53.574;7.770;2023-10-09T00:23:37;2.20;;;1.00;;
45039;SDS011;30778;53.574;7.770;2023-10-09T00:26:03;5.57;;;1.20;;
45039;SDS011;30778;53.574;7.770;2023-10-09T00:28:41;3.15;;;1.00;;
45039;SDS011;30778;53.574;7.770;2023-10-09T00:31:11;3.38;;;1.40;;
45039;SDS011;30778;53.574;7.770;2023-10-09T00:33:43;9.20;;;1.58;;
45039;SDS011;30778;53.574;7.770;2023-10-09T00:36:09;6.50;;;1.30;;
45039;SDS011;30778;53.574;7.770;2023-10-09T00:38:36;7.00;;;1.55;;
45039;SDS011;30778;53.574;7.770;2023-10-09T00:41:10;4.20;;;1.55;;
45039;SDS011;30778;53.574;7.770;2023-10-09T00:43:36;4.70;;;2.17;;
45039;SDS011;30778;53.574;7.770;2023-10-09T00:46:03;7.13;;;1.75;;
45039;SDS011;30778;53.574;7.770;2023-10-09T00:48:41;7.18;;;1.75;;
45039;SDS011;30778;53.574;7.770;2023-10-09T00:51:07;5.45;;;2.38;;
45039;SDS011;30778;53.574;7.770;2023-10-09T00:53:53;2.65;;;1.20;;
45039;SDS011;30778;53.574;7.770;2023-10-09T00:56:23;5.40;;;2.50;;
45039;SDS011;30778;53.574;7.770;2023-10-09T00:58:52;5.05;;;3.00;;
45039;SDS011;30778;53.574;7.770;2023-10-09T01:01:26;6.80;;;1.90;;
45039;SDS011;30778;53.574;7.770;2023-10-09T01:04:02;6.50;;;2.38;;
45039;SDS011;30778;53.574;7.770;2023-10-09T01:06:43;4.28;;;2.17;;
45039;SDS011;30778;53.574;7.770;2023-10-09T01:09:29;10.55;;;2.88;;
45039;SDS011;30778;53.574;7.770;2023-10-09T01:12:01;8.23;;;2.65;;
45039;SDS011;30778;53.574;7.770;2023-10-09T01:14:27;10.30;;;2.95;;
45039;SDS011;30778;53.574;7.770;2023-10-09T01:16:53;8.45;;;2.90;;
45039;SDS011;30778;53.574;7.770;2023-10-09T01:19:19;7.05;;;2.40;;
45039;SDS011;30778;53.574;7.770;2023-10-09T01:21:56;4.88;;;2.63;;
45039;SDS011;30778;53.574;7.770;2023-10-09T01:24:30;8.45;;;2.60;;
45039;SDS011;30778;53.574;7.770;2023-10-09T01:27:02;14.27;;;2.80;;
45039;SDS011;30778;53.574;7.770;2023-10-09T01:29:30;4.63;;;2.35;;
45039;SDS011;30778;53.574;7.770;2023-10-09T01:31:56;5.75;;;2.58;;
45039;SDS011;30778;53.574;7.770;2023-10-09T01:34:32;5.65;;;3.10;;
45039;SDS011;30778;53.574;7.770;2023-10-09T01:37:08;9.80;;;2.92;;
45039;SDS011;30778;53.574;7.770;2023-10-09T01:40:02;6.47;;;2.28;;
45039;SDS011;30778;53.574;7.770;2023-10-09T01:43:01;6.30;;;2.50;;
45039;SDS011;30778;53.574;7.770;2023-10-09T01:45:29;7.35;;;2.58;;
45039;SDS011;30778;53.574;7.770;2023-10-09T01:47:55;5.45;;;2.90;;
45039;SDS011;30778;53.574;7.770;2023-10-09T01:50:21;8.55;;;3.60;;
45039;SDS011;30778;53.574;7.770;2023-10-09T01:52:56;6.82;;;3.00;;
45039;SDS011;30778;53.574;7.770;2023-10-09T01:55:21;3.85;;;2.30;;
45039;SDS011;30778;53.574;7.770;2023-10-09T01:57:55;7.57;;;2.67;;
45039;SDS011;30778;53.574;7.770;2023-10-09T02:00:31;6.88;;;2.45;;
45039;SDS011;30778;53.574;7.770;2023-10-09T02:03:17;4.07;;;2.08;;
45039;SDS011;30778;53.574;7.770;2023-10-09T02:05:43;11.90;;;2.78;;
45039;SDS011;30778;53.574;7.770;2023-10-09T02:08:08;8.68;;;2.60;;
45039;SDS011;30778;53.574;7.770;2023-10-09T02:10:35;6.20;;;2.83;;
45039;SDS011;30778;53.574;7.770;2023-10-09T02:13:03;5.70;;;2.72;;
45039;SDS011;30778;53.574;7.770;2023-10-09T02:15:36;7.22;;;3.13;;
45039;SDS011;30778;53.574;7.770;2023-10-09T02:23:31;10.55;;;2.60;;
45039;SDS011;30778;53.574;7.770;2023-10-09T02:26:24;8.45;;;2.58;;
45039;SDS011;30778;53.574;7.770;2023-10-09T02:29:11;7.53;;;2.90;;
45039;SDS011;30778;53.574;7.770;2023-10-09T02:31:40;7.10;;;3.67;;
45039;SDS011;30778;53.574;7.770;2023-10-09T02:34:06;9.85;;;2.83;;
45039;SDS011;30778;53.574;7.770;2023-10-09T02:36:36;11.13;;;3.47;;
45039;SDS011;30778;53.574;7.770;2023-10-09T02:39:07;14.35;;;3.13;;
45039;SDS011;30778;53.574;7.770;2023-10-09T02:41:46;8.55;;;2.90;;
45039;SDS011;30778;53.574;7.770;2023-10-09T02:44:14;10.80;;;3.33;;
45039;SDS011;30778;53.574;7.770;2023-10-09T02:46:41;6.35;;;2.97;;
45039;SDS011;30778;53.574;7.770;2023-10-09T02:49:09;8.23;;;3.28;;
45039;SDS011;30778;53.574;7.770;2023-10-09T02:51:41;10.30;;;4.07;;
45039;SDS011;30778;53.574;7.770;2023-10-09T02:54:07;8.25;;;3.92;;
45039;SDS011;30778;53.574;7.770;2023-10-09T02:56:46;16.10;;;4.32;;
45039;SDS011;30778;53.574;7.770;2023-10-09T02:59:19;6.45;;;3.42;;
45039;SDS011;30778;53.574;7.770;2023-10-09T03:01:47;8.32;;;4.05;;
45039;SDS011;30778;53.574;7.770;2023-10-09T03:04:13;7.88;;;3.80;;
45039;SDS011;30778;53.574;7.770;2023-10-09T03:06:40;13.98;;;5.60;;
45039;SDS011;30778;53.574;7.770;2023-10-09T03:09:24;5.43;;;4.03;;
45039;SDS011;30778;53.574;7.770;2023-10-09T03:11:57;8.82;;;4.28;;
45039;SDS011;30778;53.574;7.770;2023-10-09T03:14:38;8.30;;;4.68;;
45039;SDS011;30778;53.574;7.770;2023-10-09T03:17:04;8.43;;;4.93;;
45039;SDS011;30778;53.574;7.770;2023-10-09T03:19:33;6.65;;;4.75;;
45039;SDS011;30778;53.574;7.770;2023-10-09T03:22:05;10.00;;;5.38;;
45039;SDS011;30778;53.574;7.770;2023-10-09T03:27:02;11.52;;;4.88;;
45039;SDS011;30778;53.574;7.770;2023-10-09T03:29:28;8.43;;;5.20;;
45039;SDS011;30778;53.574;7.770;2023-10-09T03:31:54;8.32;;;4.75;;
45039;SDS011;30778;53.574;7.770;2023-10-09T03:34:21;11.77;;;5.15;;
45039;SDS011;30778;53.574;7.770;2023-10-09T03:36:49;7.60;;;5.60;;
45039;SDS011;30778;53.574;7.770;2023-10-09T03:39:25;13.60;;;5.93;;
45039;SDS011;30778;53.574;7.770;2023-10-09T03:42:04;13.75;;;5.57;;
45039;SDS011;30778;53.574;7.770;2023-10-09T03:44:33;14.65;;;6.82;;
45039;SDS011;30778;53.574;7.770;2023-10-09T03:47:01;19.90;;;6.80;;
45039;SDS011;30778;53.574;7.770;2023-10-09T03:49:30;15.20;;;6.90;;
45039;SDS011;30778;53.574;7.770;2023-10-09T03:51:57;16.17;;;6.22;;
45039;SDS011;30778;53.574;7.770;2023-10-09T03:54:24;12.88;;;5.97;;
45039;SDS011;30778;53.574;7.770;2023-10-09T03:56:50;10.38;;;6.18;;
45039;SDS011;30778;53.574;7.770;2023-10-09T03:59:16;18.63;;;7.43;;
45039;SDS011;30778;53.574;7.770;2023-10-09T04:01:45;14.20;;;6.97;;
45039;SDS011;30778;53.574;7.770;2023-10-09T04:04:12;17.02;;;6.75;;
45039;SDS011;30778;53.574;7.770;2023-10-09T04:06:39;18.20;;;8.02;;
45039;SDS011;30778;53.574;7.770;2023-10-09T04:09:09;15.23;;;7.07;;
45039;SDS011;30778;53.574;7.770;2023-10-09T04:11:51;16.50;;;6.82;;
45039;SDS011;30778;53.574;7.770;2023-10-09T04:14:36;15.33;;;8.20;;
45039;SDS011;30778;53.574;7.770;2023-10-09T04:17:09;18.13;;;7.57;;
45039;SDS011;30778;53.574;7.770;2023-10-09T04:19:54;21.15;;;7.10;;
45039;SDS011;30778;53.574;7.770;2023-10-09T04:22:39;18.85;;;8.80;;
45039;SDS011;30778;53.574;7.770;2023-10-09T04:25:15;16.42;;;7.13;;
45039;SDS011;30778;53.574;7.770;2023-10-09T04:27:45;20.48;;;7.88;;
45039;SDS011;30778;53.574;7.770;2023-10-09T04:30:12;20.58;;;8.63;;
45039;SDS011;30778;53.574;7.770;2023-10-09T04:32:41;24.50;;;9.35;;
45039;SDS011;30778;53.574;7.770;2023-10-09T04:35:13;23.77;;;9.13;;
45039;SDS011;30778;53.574;7.770;2023-10-09T04:37:44;26.20;;;8.63;;
45039;SDS011;30778;53.574;7.770;2023-10-09T04:40:17;17.48;;;7.80;;
45039;SDS011;30778;53.574;7.770;2023-10-09T04:43:02;17.67;;;8.48;;
45039;SDS011;30778;53.574;7.770;2023-10-09T04:45:35;23.17;;;9.40;;
45039;SDS011;30778;53.574;7.770;2023-10-09T04:48:20;19.67;;;9.88;;
45039;SDS011;30778;53.574;7.770;2023-10-09T04:51:07;29.55;;;10.65;;
45039;SDS011;30778;53.574;7.770;2023-10-09T04:54:08;23.20;;;9.20;;
45039;SDS011;30778;53.574;7.770;2023-10-09T04:56:40;25.85;;;11.20;;
45039;SDS011;30778;53.574;7.770;2023-10-09T04:59:18;29.42;;;11.80;;
45039;SDS011;30778;53.574;7.770;2023-10-09T05:01:44;25.63;;;9.85;;
45039;SDS011;30778;53.574;7.770;2023-10-09T05:04:23;22.80;;;10.63;;
45039;SDS011;30778;53.574;7.770;2023-10-09T05:07:06;27.55;;;10.95;;
45039;SDS011;30778;53.574;7.770;2023-10-09T05:10:10;24.05;;;10.13;;
45039;SDS011;30778;53.574;7.770;2023-10-09T05:12:43;28.48;;;12.55;;
45039;SDS011;30778;53.574;7.770;2023-10-09T05:15:13;29.38;;;11.50;;
45039;SDS011;30778;53.574;7.770;2023-10-09T05:17:39;25.48;;;11.80;;
45039;SDS011;30778;53.574;7.770;2023-10-09T05:20:11;25.55;;;10.90;;
45039;SDS011;30778;53.574;7.770;2023-10-09T05:22:48;25.58;;;11.60;;
45039;SDS011;30778;53.574;7.770;2023-10-09T05:25:26;29.73;;;13.20;;
45039;SDS011;30778;53.574;7.770;2023-10-09T05:28:11;29.17;;;13.05;;
45039;SDS011;30778;53.574;7.770;2023-10-09T05:30:55;44.83;;;14.00;;
45039;SDS011;30778;53.574;7.770;2023-10-09T05:36:18;29.48;;;12.18;;
45039;SDS011;30778;53.574;7.770;2023-10-09T05:38:46;32.20;;;13.40;;
45039;SDS011;30778;53.574;7.770;2023-10-09T05:41:23;34.15;;;12.25;;
45039;SDS011;30778;53.574;7.770;2023-10-09T05:44:07;42.70;;;13.43;;
45039;SDS011;30778;53.574;7.770;2023-10-09T05:46:51;34.88;;;12.93;;
45039;SDS011;30778;53.574;7.770;2023-10-09T05:49:36;31.05;;;14.40;;
45039;SDS011;30778;53.574;7.770;2023-10-09T05:52:23;30.25;;;13.20;;
45039;SDS011;30778;53.574;7.770;2023-10-09T05:55:08;36.08;;;13.85;;
45039;SDS011;30778;53.574;7.770;2023-10-09T05:57:49;36.10;;;15.02;;
45039;SDS011;30778;53.574;7.770;2023-10-09T06:00:25;33.15;;;14.27;;
45039;SDS011;30778;53.574;7.770;2023-10-09T06:03:10;28.08;;;12.60;;
45039;SDS011;30778;53.574;7.770;2023-10-09T06:05:47;36.78;;;13.73;;
45039;SDS011;30778;53.574;7.770;2023-10-09T06:08:27;31.88;;;14.55;;
45039;SDS011;30778;53.574;7.770;2023-10-09T06:11:07;32.72;;;12.32;;
45039;SDS011;30778;53.574;7.770;2023-10-09T06:13:52;29.55;;;13.38;;
45039;SDS011;30778;53.574;7.770;2023-10-09T06:16:37;31.30;;;12.23;;
45039;SDS011;30778;53.574;7.770;2023-10-09T06:19:13;32.35;;;13.45;;
45039;SDS011;30778;53.574;7.770;2023-10-09T06:21:48;38.47;;;13.90;;
45039;SDS011;30778;53.574;7.770;2023-10-09T06:24:20;33.00;;;13.90;;
45039;SDS011;30778;53.574;7.770;2023-10-09T06:26:51;36.63;;;14.20;;
45039;SDS011;30778;53.574;7.770;2023-10-09T06:29:26;30.38;;;13.50;;
45039;SDS011;30778;53.574;7.770;2023-10-09T06:32:04;36.80;;;14.85;;
45039;SDS011;30778;53.574;7.770;2023-10-09T06:34:52;39.65;;;14.45;;
45039;SDS011;30778;53.574;7.770;2023-10-09T06:37:40;32.15;;;14.02;;
45039;SDS011;30778;53.574;7.770;2023-10-09T06:40:27;36.30;;;15.00;;
45039;SDS011;30778;53.574;7.770;2023-10-09T06:43:31;40.85;;;15.75;;
45039;SDS011;30778;53.574;7.770;2023-10-09T06:46:02;34.47;;;14.48;;
45039;SDS011;30778;53.574;7.770;2023-10-09T06:48:46;34.10;;;13.88;;
45039;SDS011;30778;53.574;7.770;2023-10-09T06:51:21;38.55;;;14.70;;
45039;SDS011;30778;53.574;7.770;2023-10-09T06:53:51;39.55;;;15.98;;
45039;SDS011;30778;53.574;7.770;2023-10-09T06:56:20;41.60;;;15.57;;
45039;SDS011;30778;53.574;7.770;2023-10-09T06:58:56;37.58;;;16.30;;
45039;SDS011;30778;53.574;7.770;2023-10-09T07:01:30;40.97;;;16.67;;
45039;SDS011;30778;53.574;7.770;2023-10-09T07:04:09;35.67;;;15.10;;
45039;SDS011;30778;53.574;7.770;2023-10-09T07:07:06;35.20;;;15.93;;
45039;SDS011;30778;53.574;7.770;2023-10-09T07:09:49;42.10;;;15.73;;
45039;SDS011;30778;53.574;7.770;2023-10-09T07:12:33;36.35;;;15.80;;
45039;SDS011;30778;53.574;7.770;2023-10-09T07:15:01;38.35;;;15.82;;
45039;SDS011;30778;53.574;7.770;2023-10-09T07:17:30;40.78;;;15.15;;
45039;SDS011;30778;53.574;7.770;2023-10-09T07:19:58;36.25;;;15.90;;
45039;SDS011;30778;53.574;7.770;2023-10-09T07:22:39;35.30;;;12.38;;
45039;SDS011;30778;53.574;7.770;2023-10-09T07:25:05;28.23;;;12.90;;
45039;SDS011;30778;53.574;7.770;2023-10-09T07:27:52;31.08;;;13.40;;
45039;SDS011;30778;53.574;7.770;2023-10-09T07:30:20;30.40;;;12.30;;
45039;SDS011;30778;53.574;7.770;2023-10-09T07:35:41;39.67;;;12.23;;
45039;SDS011;30778;53.574;7.770;2023-10-09T07:38:26;23.35;;;9.13;;
45039;SDS011;30778;53.574;7.770;2023-10-09T07:41:00;20.98;;;7.63;;
45039;SDS011;30778;53.574;7.770;2023-10-09T07:43:30;16.77;;;7.60;;
45039;SDS011;30778;53.574;7.770;2023-10-09T07:46:10;24.73;;;7.63;;
45039;SDS011;30778;53.574;7.770;2023-10-09T07:48:59;25.25;;;6.78;;
45039;SDS011;30778;53.574;7.770;2023-10-09T07:51:33;15.02;;;4.65;;
45039;SDS011;30778;53.574;7.770;2023-10-09T07:54:00;18.98;;;5.88;;
45039;SDS011;30778;53.574;7.770;2023-10-09T07:56:33;14.38;;;6.72;;
45039;SDS011;30778;53.574;7.770;2023-10-09T07:59:06;27.17;;;5.88;;
45039;SDS011;30778;53.574;7.770;2023-10-09T08:01:39;16.83;;;5.82;;
45039;SDS011;30778;53.574;7.770;2023-10-09T08:04:24;13.27;;;5.00;;
45039;SDS011;30778;53.574;7.770;2023-10-09T08:07:08;12.55;;;4.82;;
45039;SDS011;30778;53.574;7.770;2023-10-09T08:10:08;18.55;;;5.38;;
45039;SDS011;30778;53.574;7.770;2023-10-09T08:12:43;19.30;;;5.18;;
45039;SDS011;30778;53.574;7.770;2023-10-09T08:15:15;20.42;;;5.63;;
45039;SDS011;30778;53.574;7.770;2023-10-09T08:17:45;17.33;;;4.70;;
45039;SDS011;30778;53.574;7.770;2023-10-09T08:20:16;17.33;;;5.78;;
45039;SDS011;30778;53.574;7.770;2023-10-09T08:22:42;25.38;;;5.60;;
45039;SDS011;30778;53.574;7.770;2023-10-09T08:25:12;12.75;;;5.25;;
45039;SDS011;30778;53.574;7.770;2023-10-09T08:27:58;18.02;;;4.95;;
45039;SDS011;30778;53.574;7.770;2023-10-09T08:30:44;12.50;;;4.53;;
45039;SDS011;30778;53.574;7.770;2023-10-09T08:33:30;21.00;;;6.00;;
45039;SDS011;30778;53.574;7.770;2023-10-09T08:36:06;15.02;;;4.50;;
45039;SDS011;30778;53.574;7.770;2023-10-09T08:38:33;19.35;;;5.32;;
45039;SDS011;30778;53.574;7.770;2023-10-09T08:41:09;15.02;;;6.18;;
45039;SDS011;30778;53.574;7.770;2023-10-09T08:43:52;13.65;;;4.65;;
45039;SDS011;30778;53.574;7.770;2023-10-09T08:46:22;16.77;;;3.78;;
45039;SDS011;30778;53.574;7.770;2023-10-09T08:48:58;17.98;;;4.70;;
45039;SDS011;30778;53.574;7.770;2023-10-09T08:51:24;21.65;;;6.00;;
45039;SDS011;30778;53.574;7.770;2023-10-09T08:53:51;13.52;;;4.05;;
45039;SDS011;30778;53.574;7.770;2023-10-09T08:56:17;20.77;;;5.22;;
45039;SDS011;30778;53.574;7.770;2023-10-09T08:58:48;17.50;;;5.00;;
45039;SDS011;30778;53.574;7.770;2023-10-09T09:01:18;15.50;;;3.63;;
45039;SDS011;30778;53.574;7.770;2023-10-09T09:03:46;14.27;;;3.50;;
45039;SDS011;30778;53.574;7.770;2023-10-09T09:06:12;12.77;;;4.40;;
45039;SDS011;30778;53.574;7.770;2023-10-09T09:08:39;16.35;;;4.43;;
45039;SDS011;30778;53.574;7.770;2023-10-09T09:11:08;14.80;;;3.85;;
45039;SDS011;30778;53.574;7.770;2023-10-09T09:18:52;14.73;;;4.00;;
45039;SDS011;30778;53.574;7.770;2023-10-09T09:21:26;9.30;;;3.42;;
45039;SDS011;30778;53.574;7.770;2023-10-09T09:23:59;15.35;;;4.03;;
45039;SDS011;30778;53.574;7.770;2023-10-09T09:26:39;19.00;;;4.80;;
45039;SDS011;30778;53.574;7.770;2023-10-09T09:29:12;15.82;;;4.53;;
45039;SDS011;30778;53.574;7.770;2023-10-09T09:31:55;18.70;;;4.80;;
45039;SDS011;30778;53.574;7.770;2023-10-09T09:34:47;12.57;;;3.45;;
45039;SDS011;30778;53.574;7.770;2023-10-09T09:37:23;16.60;;;3.63;;
45039;SDS011;30778;53.574;7.770;2023-10-09T09:39:59;14.43;;;4.45;;
45039;SDS011;30778;53.574;7.770;2023-10-09T09:42:46;12.98;;;3.63;;
45039;SDS011;30778;53.574;7.770;2023-10-09T09:45:15;15.63;;;4.72;;
45039;SDS011;30778;53.574;7.770;2023-10-09T09:47:43;15.10;;;3.95;;
45039;SDS011;30778;53.574;7.770;2023-10-09T09:50:17;11.93;;;4.38;;
45039;SDS011;30778;53.574;7.770;2023-10-09T09:52:49;13.13;;;3.03;;
45039;SDS011;30778;53.574;7.770;2023-10-09T09:55:21;16.80;;;3.78;;
45039;SDS011;30778;53.574;7.770;2023-10-09T09:57:57;16.58;;;5.07;;
45039;SDS011;30778;53.574;7.770;2023-10-09T10:00:25;9.88;;;3.38;;
45039;SDS011;30778;53.574;7.770;2023-10-09T10:03:14;14.30;;;3.97;;
45039;SDS011;30778;53.574;7.770;2023-10-09T10:05:58;15.73;;;4.05;;
45039;SDS011;30778;53.574;7.770;2023-10-09T10:08:29;12.32;;;3.95;;
45039;SDS011;30778;53.574;7.770;2023-10-09T10:10:58;13.02;;;3.78;;
45039;SDS011;30778;53.574;7.770;2023-10-09T10:14:14;16.50;;;3.53;;
45039;SDS011;30778;53.574;7.770;2023-10-09T10:16:29;16.42;;;3.75;;
45039;SDS011;30778;53.574;7.770;2023-10-09T10:19:00;18.67;;;4.22;;
45039;SDS011;30778;53.574;7.770;2023-10-09T10:21:43;13.02;;;3.95;;
45039;SDS011;30778;53.574;7.770;2023-10-09T10:32:55;13.68;;;3.47;;
45039;SDS011;30778;53.574;7.770;2023-10-09T10:35:23;8.27;;;2.97;;
45039;SDS011;30778;53.574;7.770;2023-10-09T10:40:48;9.93;;;2.67;;
45039;SDS011;30778;53.574;7.770;2023-10-09T10:43:22;11.02;;;2.70;;
45039;SDS011;30778;53.574;7.770;2023-10-09T10:46:05;13.60;;;2.15;;
45039;SDS011;30778;53.574;7.770;2023-10-09T10:48:52;11.43;;;3.20;;
45039;SDS011;30778;53.574;7.770;2023-10-09T10:51:28;11.68;;;2.10;;
45039;SDS011;30778;53.574;7.770;2023-10-09T10:54:03;9.57;;;2.90;;
45039;SDS011;30778;53.574;7.770;2023-10-09T10:56:49;7.88;;;1.80;;
45039;SDS011;30778;53.574;7.770;2023-10-09T10:59:19;9.52;;;2.60;;
45039;SDS011;30778;53.574;7.770;2023-10-09T11:01:51;8.43;;;2.63;;
45039;SDS011;30778;53.574;7.770;2023-10-09T11:04:21;18.65;;;2.70;;
45039;SDS011;30778;53.574;7.770;2023-10-09T11:06:57;13.45;;;2.90;;
45039;SDS011;30778;53.574;7.770;2023-10-09T11:12:45;14.63;;;2.30;;
45039;SDS011;30778;53.574;7.770;2023-10-09T11:15:17;4.28;;;1.55;;
45039;SDS011;30778;53.574;7.770;2023-10-09T11:20:36;6.57;;;1.63;;
45039;SDS011;30778;53.574;7.770;2023-10-09T11:23:19;11.20;;;1.30;;
45039;SDS011;30778;53.574;7.770;2023-10-09T11:25:54;11.05;;;1.63;;
45039;SDS011;30778;53.574;7.770;2023-10-09T11:28:40;12.45;;;2.35;;
45039;SDS011;30778;53.574;7.770;2023-10-09T11:31:14;9.00;;;1.90;;
45039;SDS011;30778;53.574;7.770;2023-10-09T11:33:43;12.80;;;1.67;;
45039;SDS011;30778;53.574;7.770;2023-10-09T11:36:10;11.45;;;1.42;;
45039;SDS011;30778;53.574;7.770;2023-10-09T11:38:37;8.15;;;1.20;;
45039;SDS011;30778;53.574;7.770;2023-10-09T11:41:16;12.23;;;1.52;;
45039;SDS011;30778;53.574;7.770;2023-10-09T11:43:52;8.10;;;2.17;;
45039;SDS011;30778;53.574;7.770;2023-10-09T11:46:19;4.65;;;1.50;;
45039;SDS011;30778;53.574;7.770;2023-10-09T11:49:24;5.45;;;1.40;;
45039;SDS011;30778;53.574;7.770;2023-10-09T11:52:06;6.90;;;0.93;;
45039;SDS011;30778;53.574;7.770;2023-10-09T11:54:38;4.53;;;1.15;;
45039;SDS011;30778;53.574;7.770;2023-10-09T11:57:04;6.93;;;1.08;;
45039;SDS011;30778;53.574;7.770;2023-10-09T11:59:30;4.38;;;0.75;;
45039;SDS011;30778;53.574;7.770;2023-10-09T12:02:08;6.72;;;0.85;;
45039;SDS011;30778;53.574;7.770;2023-10-09T12:04:38;4.40;;;0.73;;
45039;SDS011;30778;53.574;7.770;2023-10-09T12:09:37;4.43;;;0.73;;
45039;SDS011;30778;53.574;7.770;2023-10-09T12:12:03;11.13;;;1.23;;
45039;SDS011;30778;53.574;7.770;2023-10-09T12:14:30;6.10;;;0.93;;
45039;SDS011;30778;53.574;7.770;2023-10-09T12:17:00;8.45;;;1.33;;
45039;SDS011;30778;53.574;7.770;2023-10-09T12:19:37;10.90;;;1.23;;
45039;SDS011;30778;53.574;7.770;2023-10-09T12:22:04;5.53;;;0.77;;
45039;SDS011;30778;53.574;7.770;2023-10-09T12:24:41;6.68;;;0.50;;
45039;SDS011;30778;53.574;7.770;2023-10-09T12:27:08;6.50;;;0.63;;
45039;SDS011;30778;53.574;7.770;2023-10-09T12:29:38;4.13;;;0.30;;
45039;SDS011;30778;53.574;7.770;2023-10-09T12:32:09;3.53;;;0.40;;
45039;SDS011;30778;53.574;7.770;2023-10-09T12:34:36;8.68;;;0.93;;
45039;SDS011;30778;53.574;7.770;2023-10-09T12:37:03;7.72;;;0.60;;
45039;SDS011;30778;53.574;7.770;2023-10-09T12:39:33;10.85;;;0.68;;
45039;SDS011;30778;53.574;7.770;2023-10-09T12:41:59;4.35;;;0.40;;
45039;SDS011;30778;53.574;7.770;2023-10-09T12:44:34;2.45;;;0.30;;
45039;SDS011;30778;53.574;7.770;2023-10-09T12:47:08;5.13;;;1.25;;
45039;SDS011;30778;53.574;7.770;2023-10-09T12:49:36;6.47;;;0.70;;
45039;SDS011;30778;53.574;7.770;2023-10-09T12:52:06;2.22;;;0.65;;
45039;SDS011;30778;53.574;7.770;2023-10-09T12:54:42;4.97;;;1.00;;
45039;SDS011;30778;53.574;7.770;2023-10-09T12:57:08;6.82;;;1.05;;
45039;SDS011;30778;53.574;7.770;2023-10-09T12:59:39;6.20;;;0.80;;
45039;SDS011;30778;53.574;7.770;2023-10-09T13:02:11;8.43;;;0.70;;
45039;SDS011;30778;53.574;7.770;2023-10-09T13:04:53;10.18;;;1.10;;
45039;SDS011;30778;53.574;7.770;2023-10-09T13:07:20;4.38;;;0.30;;
45039;SDS011;30778;53.574;7.770;2023-10-09T13:09:47;4.97;;;0.50;;
45039;SDS011;30778;53.574;7.770;2023-10-09T13:12:33;8.40;;;1.35;;
45039;SDS011;30778;53.574;7.770;2023-10-09T13:15:04;6.55;;;0.73;;
45039;SDS011;30778;53.574;7.770;2023-10-09T13:17:35;6.33;;;0.50;;
45039;SDS011;30778;53.574;7.770;2023-10-09T13:20:03;6.20;;;0.30;;
45039;SDS011;30778;53.574;7.770;2023-10-09T13:22:39;3.92;;;0.50;;
45039;SDS011;30778;53.574;7.770;2023-10-09T13:25:09;6.18;;;0.50;;
45039;SDS011;30778;53.574;7.770;2023-10-09T13:27:41;2.13;;;0.20;;
45039;SDS011;30778;53.574;7.770;2023-10-09T13:30:18;2.92;;;0.30;;
45039;SDS011;30778;53.574;7.770;2023-10-09T13:32:49;2.70;;;0.30;;
45039;SDS011;30778;53.574;7.770;2023-10-09T13:35:16;5.40;;;0.75;;
45039;SDS011;30778;53.574;7.770;2023-10-09T13:37:42;0.77;;;0.20;;
45039;SDS011;30778;53.574;7.770;2023-10-09T13:40:10;5.88;;;0.32;;
45039;SDS011;30778;53.574;7.770;2023-10-09T13:42:46;4.65;;;0.40;;
45039;SDS011;30778;53.574;7.770;2023-10-09T13:45:14;2.33;;;0.30;;
45039;SDS011;30778;53.574;7.770;2023-10-09T13:47:43;2.55;;;0.20;;
45039;SDS011;30778;53.574;7.770;2023-10-09T13:50:10;2.00;;;0.20;;
45039;SDS011;30778;53.574;7.770;2023-10-09T13:52:38;2.40;;;0.70;;
45039;SDS011;30778;53.574;7.770;2023-10-09T13:55:04;4.25;;;0.22;;
45039;SDS011;30778;53.574;7.770;2023-10-09T13:57:40;7.43;;;0.88;;
45039;SDS011;30778;53.574;7.770;2023-10-09T14:00:11;5.55;;;0.80;;
45039;SDS011;30778;53.574;7.770;2023-10-09T14:02:42;4.65;;;0.20;;
45039;SDS011;30778;53.574;7.770;2023-10-09T14:05:08;1.08;;;0.20;;
45039;SDS011;30778;53.574;7.770;2023-10-09T14:07:34;1.05;;;0.35;;
45039;SDS011;30778;53.574;7.770;2023-10-09T14:10:00;4.85;;;0.75;;
45039;SDS011;30778;53.574;7.770;2023-10-09T14:12:55;7.40;;;0.85;;
45039;SDS011;30778;53.574;7.770;2023-10-09T14:15:22;5.15;;;1.02;;
45039;SDS011;30778;53.574;7.770;2023-10-09T14:17:51;7.50;;;0.90;;
45039;SDS011;30778;53.574;7.770;2023-10-09T14:20:21;9.60;;;0.60;;
45039;SDS011;30778;53.574;7.770;2023-10-09T14:23:13;4.80;;;0.60;;
45039;SDS011;30778;53.574;7.770;2023-10-09T14:25:45;9.32;;;0.40;;
45039;SDS011;30778;53.574;7.770;2023-10-09T14:28:15;8.77;;;1.95;;
45039;SDS011;30778;53.574;7.770;2023-10-09T14:30:44;4.45;;;0.57;;
45039;SDS011;30778;53.574;7.770;2023-10-09T14:33:12;5.93;;;1.00;;
45039;SDS011;30778;53.574;7.770;2023-10-09T14:35:41;5.15;;;1.08;;
45039;SDS011;30778;53.574;7.770;2023-10-09T14:38:09;7.90;;;0.70;;
45039;SDS011;30778;53.574;7.770;2023-10-09T14:40:44;4.30;;;0.27;;
45039;SDS011;30778;53.574;7.770;2023-10-09T14:43:11;3.40;;;0.25;;
45039;SDS011;30778;53.574;7.770;2023-10-09T14:45:48;2.88;;;0.20;;
45039;SDS011;30778;53.574;7.770;2023-10-09T14:48:14;5.25;;;0.50;;
45039;SDS011;30778;53.574;7.770;2023-10-09T14:50:49;6.35;;;0.30;;
45039;SDS011;30778;53.574;7.770;2023-10-09T14:53:18;2.88;;;0.10;;
45039;SDS011;30778;53.574;7.770;2023-10-09T14:55:45;7.38;;;0.40;;
45039;SDS011;30778;53.574;7.770;2023-10-09T14:58:11;2.00;;;0.30;;
45039;SDS011;30778;53.574;7.770;2023-10-09T15:00:37;4.28;;;0.32;;
45039;SDS011;30778;53.574;7.770;2023-10-09T15:03:03;8.60;;;0.75;;
45039;SDS011;30778;53.574;7.770;2023-10-09T15:05:29;8.20;;;0.45;;
45039;SDS011;30778;53.574;7.770;2023-10-09T15:07:57;6.65;;;0.47;;
45039;SDS011;30778;53.574;7.770;2023-10-09T15:10:22;0.65;;;0.30;;
45039;SDS011;30778;53.574;7.770;2023-10-09T15:12:49;6.35;;;1.33;;
45039;SDS011;30778;53.574;7.770;2023-10-09T15:15:15;8.95;;;0.68;;
45039;SDS011;30778;53.574;7.770;2023-10-09T15:17:41;5.20;;;0.40;;
45039;SDS011;30778;53.574;7.770;2023-10-09T15:20:12;4.63;;;0.60;;
45039;SDS011;30778;53.574;7.770;2023-10-09T15:22:40;11.10;;;1.63;;
45039;SDS011;30778;53.574;7.770;2023-10-09T15:25:06;3.17;;;0.45;;
45039;SDS011;30778;53.574;7.770;2023-10-09T15:27:32;2.72;;;0.52;;
45039;SDS011;30778;53.574;7.770;2023-10-09T15:29:58;9.90;;;0.98;;
45039;SDS011;30778;53.574;7.770;2023-10-09T15:32:23;9.35;;;1.80;;
45039;SDS011;30778;53.574;7.770;2023-10-09T15:34:54;3.10;;;1.02;;
45039;SDS011;30778;53.574;7.770;2023-10-09T15:37:22;6.93;;;0.70;;
45039;SDS011;30778;53.574;7.770;2023-10-09T15:39:47;4.35;;;0.35;;
45039;SDS011;30778;53.574;7.770;2023-10-09T15:42:15;3.80;;;0.40;;
45039;SDS011;30778;53.574;7.770;2023-10-09T15:44:41;8.90;;;1.67;;
45039;SDS011;30778;53.574;7.770;2023-10-09T15:47:07;3.00;;;0.80;;
45039;SDS011;30778;53.574;7.770;2023-10-09T15:49:36;6.18;;;0.68;;
45039;SDS011;30778;53.574;7.770;2023-10-09T15:52:09;2.10;;;0.32;;
45039;SDS011;30778;53.574;7.770;2023-10-09T15:54:40;8.27;;;0.45;;